Time;durP1;ratioP1;P1;durP2;ratioP2;P2;SDS_P1;SDS_P2;PMS_P1;PMS_P2;Temp;Humidity;BMP_temperature;BMP_pressure;BME280_temperature;BME280_humidity;BME280_pressure;Samples;Min_cycle;Max_cycle;Signal;HPM_P1;HPM_P2
2023/10/07 00:02:13;;;;;;;10.40;7.40;;;11.50;99.90;;;;;;5051908;28;20308;-59
2023/10/07 00:04:42;;;;;;;6.97;6.30;;;11.50;99.90;;;;;;5050020;28;20209;-59
2023/10/07 00:07:11;;;;;;;8.43;6.13;;;11.40;99.90;;;;;;5051147;28;20249;-59
2023/10/07 00:09:41;;;;;;;7.47;5.90;;;11.40;99.90;;;;;;5051711;28;20252;-59
2023/10/07 00:12:14;;;;;;;10.23;7.57;;;11.30;99.90;;;;;;5048506;28;20229;-59
2023/10/07 00:14:41;;;;;;;7.03;5.70;;;11.30;99.90;;;;;;5051145;28;20205;-58
2023/10/07 00:17:16;;;;;;;7.33;6.10;;;11.30;99.90;;;;;;5051951;28;20202;-57
2023/10/07 00:19:46;;;;;;;8.57;6.60;;;11.20;99.90;;;;;;5051064;28;20223;-57
2023/10/07 00:22:14;;;;;;;7.47;6.67;;;11.20;99.90;;;;;;5051110;28;20245;-57
2023/10/07 00:24:43;;;;;;;8.97;6.40;;;11.10;99.90;;;;;;5051306;28;20216;-57
2023/10/07 00:27:22;;;;;;;8.30;6.67;;;11.10;99.90;;;;;;5048305;28;20227;-58
2023/10/07 00:29:54;;;;;;;6.77;6.10;;;11.10;99.90;;;;;;5050597;28;20550;-57
2023/10/07 00:32:26;;;;;;;8.00;6.27;;;11.10;99.90;;;;;;5050223;28;20223;-57
2023/10/07 00:34:59;;;;;;;7.13;6.00;;;11.00;99.90;;;;;;5051819;28;20566;-57
2023/10/07 00:37:28;;;;;;;8.23;7.00;;;10.90;99.90;;;;;;5042547;28;20728;-56
2023/10/07 00:39:55;;;;;;;7.60;6.63;;;10.90;99.90;;;;;;5046997;28;20247;-59
2023/10/07 00:42:24;;;;;;;6.13;5.53;;;10.90;99.90;;;;;;5048059;28;20228;-59
2023/10/07 00:44:52;;;;;;;6.67;5.97;;;10.80;99.90;;;;;;5051579;28;20278;-59
2023/10/07 00:47:21;;;;;;;8.03;6.27;;;10.80;99.90;;;;;;5051548;28;20225;-59
2023/10/07 00:49:54;;;;;;;8.20;6.13;;;10.80;99.90;;;;;;5050235;28;20212;-58
2023/10/07 00:52:29;;;;;;;6.93;5.67;;;10.80;99.90;;;;;;5049925;28;20295;-59
2023/10/07 00:55:08;;;;;;;10.10;6.23;;;10.80;99.90;;;;;;5051123;28;20243;-57
2023/10/07 00:57:37;;;;;;;7.40;6.70;;;10.80;99.90;;;;;;5051352;28;20218;-57
2023/10/07 01:00:30;;;;;;;7.30;6.63;;;10.80;99.90;;;;;;5043184;28;20220;-57
2023/10/07 01:03:12;;;;;;;9.03;6.00;;;10.80;99.90;;;;;;5050445;28;20204;-57
2023/10/07 01:05:44;;;;;;;8.83;6.40;;;10.70;99.90;;;;;;5049241;28;20223;-58
2023/10/07 01:08:12;;;;;;;7.73;5.60;;;10.70;99.90;;;;;;5050824;28;20256;-57
2023/10/07 01:10:53;;;;;;;8.33;5.87;;;10.70;99.90;;;;;;5051303;28;20235;-57
2023/10/07 01:13:29;;;;;;;7.77;6.97;;;10.70;99.90;;;;;;5050492;28;20212;-58
2023/10/07 01:15:58;;;;;;;10.67;7.00;;;10.70;99.90;;;;;;5050042;28;20205;-57
2023/10/07 01:18:27;;;;;;;6.70;6.00;;;10.70;99.90;;;;;;5047402;28;20205;-57
2023/10/07 01:21:11;;;;;;;7.93;6.53;;;10.70;99.90;;;;;;5049256;28;20227;-57
2023/10/07 01:23:44;;;;;;;7.93;5.70;;;10.70;99.90;;;;;;5048678;28;20550;-57
2023/10/07 01:26:16;;;;;;;9.73;6.47;;;10.70;99.90;;;;;;5050937;28;20623;-57
2023/10/07 01:28:43;;;;;;;6.43;5.83;;;10.70;99.90;;;;;;5050876;28;20726;-57
2023/10/07 01:31:12;;;;;;;7.13;6.27;;;10.70;99.90;;;;;;5050743;28;20227;-57
2023/10/07 01:33:45;;;;;;;8.63;6.90;;;10.70;99.90;;;;;;5048263;28;20232;-57
2023/10/07 01:36:16;;;;;;;6.00;5.47;;;10.70;99.90;;;;;;5047962;28;20277;-58
2023/10/07 01:38:48;;;;;;;7.53;5.50;;;10.70;99.90;;;;;;5052530;28;20637;-58
2023/10/07 01:41:18;;;;;;;7.70;6.20;;;10.70;99.90;;;;;;5054651;28;20239;-58
2023/10/07 01:43:56;;;;;;;6.70;5.70;;;10.70;99.90;;;;;;5054642;28;20236;-57
2023/10/07 01:46:27;;;;;;;6.23;5.40;;;10.70;99.90;;;;;;5053015;28;20758;-57
2023/10/07 01:48:57;;;;;;;7.77;6.03;;;10.60;99.90;;;;;;5051784;28;20303;-58
2023/10/07 01:51:26;;;;;;;7.33;5.67;;;10.60;99.90;;;;;;5052185;28;20807;-58
2023/10/07 01:53:56;;;;;;;5.60;5.10;;;10.60;99.90;;;;;;5051036;28;20206;-57
2023/10/07 01:56:26;;;;;;;9.10;6.37;;;10.50;99.90;;;;;;5055358;28;20223;-57
2023/10/07 01:58:56;;;;;;;7.57;5.33;;;10.60;99.90;;;;;;5053658;28;20880;-57
2023/10/07 02:01:23;;;;;;;6.27;5.50;;;10.70;99.90;;;;;;5054289;28;20708;-57
2023/10/07 02:03:51;;;;;;;7.87;5.13;;;10.70;99.90;;;;;;5053725;28;20626;-57
2023/10/07 02:06:19;;;;;;;6.97;5.90;;;10.60;99.90;;;;;;5053737;28;20610;-58
2023/10/07 02:08:46;;;;;;;7.73;6.00;;;10.80;99.90;;;;;;5052013;28;20309;-57
2023/10/07 02:11:18;;;;;;;7.67;5.00;;;10.80;99.90;;;;;;5047118;28;20714;-57
2023/10/07 02:13:46;;;;;;;7.97;5.77;;;10.90;99.90;;;;;;5049838;28;20220;-57
2023/10/07 02:16:16;;;;;;;5.70;5.23;;;10.80;99.90;;;;;;5052886;28;20295;-57
2023/10/07 02:18:47;;;;;;;7.60;5.30;;;10.80;99.90;;;;;;5051062;28;20219;-57
2023/10/07 02:21:16;;;;;;;5.93;5.37;;;10.80;99.90;;;;;;5054077;28;20251;-58
2023/10/07 02:23:44;;;;;;;6.07;4.83;;;10.80;99.90;;;;;;5050601;28;20200;-58
2023/10/07 02:26:17;;;;;;;6.37;4.93;;;10.80;99.90;;;;;;5054166;28;20714;-58
2023/10/07 02:28:48;;;;;;;6.63;5.23;;;10.80;99.90;;;;;;5054378;28;20255;-57
2023/10/07 02:31:18;;;;;;;8.20;4.87;;;10.70;99.90;;;;;;5052107;28;20721;-56
2023/10/07 02:33:46;;;;;;;6.50;5.50;;;10.70;99.90;;;;;;5053720;28;20226;-57
2023/10/07 02:36:28;;;;;;;5.07;4.50;;;10.60;99.90;;;;;;5047980;28;20747;-57
2023/10/07 02:38:56;;;;;;;6.43;4.90;;;10.40;99.90;;;;;;5053388;28;20193;-57
2023/10/07 02:41:25;;;;;;;5.53;4.93;;;10.30;99.90;;;;;;5052593;28;20234;-58
2023/10/07 02:43:54;;;;;;;5.87;4.67;;;10.20;99.90;;;;;;5053792;28;20244;-58
2023/10/07 02:46:31;;;;;;;8.57;5.17;;;10.10;99.90;;;;;;5043038;28;20205;-58
2023/10/07 02:49:05;;;;;;;6.73;4.67;;;10.10;99.90;;;;;;5048847;28;20247;-58
2023/10/07 02:51:33;;;;;;;4.80;4.43;;;10.10;99.90;;;;;;5052354;28;20706;-57
2023/10/07 02:54:06;;;;;;;6.00;5.37;;;10.00;99.90;;;;;;5053761;28;20743;-58
2023/10/07 02:56:43;;;;;;;7.93;4.53;;;10.10;99.90;;;;;;5040571;28;20208;-58
2023/10/07 02:59:26;;;;;;;10.60;5.03;;;10.00;99.90;;;;;;5044573;28;20195;-57
2023/10/07 03:04:36;;;;;;;4.73;4.33;;;10.00;99.90;;;;;;5053119;28;20192;-57
2023/10/07 03:07:13;;;;;;;6.00;5.40;;;9.90;99.90;;;;;;5053341;28;20675;-57
2023/10/07 03:09:42;;;;;;;5.80;5.30;;;9.90;99.90;;;;;;5053663;28;20630;-57
2023/10/07 03:12:12;;;;;;;5.00;4.47;;;9.90;99.90;;;;;;5051562;28;20259;-57
2023/10/07 03:14:43;;;;;;;4.77;3.87;;;9.80;99.90;;;;;;5052680;22;20238;-58
2023/10/07 03:17:18;;;;;;;5.80;4.60;;;9.80;99.90;;;;;;5027713;28;20611;-58
2023/10/07 03:19:53;;;;;;;5.57;4.83;;;9.80;99.90;;;;;;5028000;28;20208;-58
2023/10/07 03:22:28;;;;;;;8.07;4.20;;;9.80;99.90;;;;;;5020184;28;20220;-57
2023/10/07 03:25:00;;;;;;;7.60;5.30;;;9.80;99.90;;;;;;5017288;28;20256;-58
2023/10/07 03:27:27;;;;;;;4.50;4.10;;;9.70;99.90;;;;;;5012429;28;20724;-58
2023/10/07 03:30:12;;;;;;;5.43;4.93;;;9.70;99.90;;;;;;5012410;28;21021;-58
2023/10/07 03:32:56;;;;;;;4.90;4.40;;;9.70;99.90;;;;;;5011000;28;20207;-58
2023/10/07 03:35:35;;;;;;;5.80;4.30;;;9.80;99.90;;;;;;5011692;28;20258;-58
2023/10/07 03:38:08;;;;;;;8.77;5.10;;;9.90;99.90;;;;;;5009405;28;20212;-58
2023/10/07 03:40:38;;;;;;;6.63;4.87;;;10.00;99.90;;;;;;5012909;28;20208;-58
2023/10/07 03:43:08;;;;;;;5.33;3.87;;;9.90;99.90;;;;;;5012426;28;20206;-58
2023/10/07 03:45:40;;;;;;;4.73;4.20;;;9.90;99.90;;;;;;5012472;28;20225;-59
2023/10/07 03:48:23;;;;;;;5.63;4.10;;;9.90;99.90;;;;;;5012732;28;20312;-58
2023/10/07 03:50:59;;;;;;;5.07;4.53;;;9.90;99.90;;;;;;5015226;28;20209;-58
2023/10/07 03:53:31;;;;;;;5.50;3.90;;;9.80;99.90;;;;;;5010269;28;20203;-59
2023/10/07 03:56:00;;;;;;;4.17;3.77;;;9.80;99.90;;;;;;5012351;28;20250;-59
2023/10/07 03:58:28;;;;;;;5.80;3.53;;;9.80;99.90;;;;;;5011518;28;20193;-58
2023/10/07 04:00:57;;;;;;;5.17;3.50;;;9.80;99.90;;;;;;5010418;28;20259;-58
2023/10/07 04:03:25;;;;;;;5.07;4.63;;;9.80;99.90;;;;;;5011785;28;20237;-58
2023/10/07 04:05:52;;;;;;;3.90;3.60;;;9.70;99.90;;;;;;5012467;28;20205;-58
2023/10/07 04:08:19;;;;;;;6.30;3.63;;;9.70;99.90;;;;;;5008690;28;20224;-58
2023/10/07 04:10:47;;;;;;;7.83;4.20;;;9.70;99.90;;;;;;5009291;28;20581;-58
2023/10/07 04:13:21;;;;;;;4.37;3.97;;;9.70;99.90;;;;;;5007078;28;20296;-58
2023/10/07 04:15:53;;;;;;;4.77;4.23;;;9.80;99.90;;;;;;5011872;28;20233;-58
2023/10/07 04:18:34;;;;;;;7.03;5.27;;;9.70;99.90;;;;;;5008350;28;20199;-58
2023/10/07 04:21:02;;;;;;;5.57;3.80;;;9.70;99.90;;;;;;5008089;28;20209;-58
2023/10/07 04:23:29;;;;;;;5.47;4.53;;;9.60;99.90;;;;;;5007276;28;20287;-58
2023/10/07 04:26:05;;;;;;;5.87;4.13;;;9.60;99.90;;;;;;5011359;28;20195;-59
2023/10/07 04:28:32;;;;;;;4.60;3.83;;;9.50;99.90;;;;;;5011255;28;20224;-58
2023/10/07 04:30:59;;;;;;;4.10;3.70;;;9.40;99.90;;;;;;5011093;28;20207;-58
2023/10/07 04:33:32;;;;;;;4.80;3.80;;;9.40;99.90;;;;;;5011546;28;20306;-58
2023/10/07 04:36:04;;;;;;;4.73;4.07;;;9.40;99.90;;;;;;5010737;28;20296;-58
2023/10/07 04:38:52;;;;;;;8.43;4.10;;;9.40;99.90;;;;;;5007848;28;20694;-58
2023/10/07 04:41:32;;;;;;;4.70;4.30;;;9.40;99.90;;;;;;5009231;28;20204;-59
2023/10/07 04:44:20;;;;;;;5.20;4.27;;;9.40;99.90;;;;;;5007415;28;20236;-58
2023/10/07 04:46:56;;;;;;;4.93;4.07;;;9.40;99.90;;;;;;5009532;28;20201;-58
2023/10/07 04:49:38;;;;;;;6.63;4.40;;;9.40;99.90;;;;;;5009627;28;20227;-58
2023/10/07 04:52:09;;;;;;;5.63;4.17;;;9.40;99.90;;;;;;5005465;28;20232;-58
2023/10/07 04:54:37;;;;;;;6.67;4.57;;;9.50;99.90;;;;;;5004371;28;20228;-58
2023/10/07 04:57:09;;;;;;;5.50;4.40;;;9.40;99.90;;;;;;5007954;28;20193;-58
2023/10/07 04:59:45;;;;;;;6.13;4.20;;;9.40;99.90;;;;;;5006707;28;20205;-58
2023/10/07 05:02:15;;;;;;;5.90;4.27;;;9.30;99.90;;;;;;5004589;28;20236;-58
2023/10/07 05:04:49;;;;;;;4.90;4.33;;;9.40;99.90;;;;;;5005388;28;20229;-58
2023/10/07 05:07:24;;;;;;;8.80;4.87;;;9.40;99.90;;;;;;5002220;28;20209;-58
2023/10/07 05:09:50;;;;;;;5.77;3.73;;;9.30;99.90;;;;;;5007699;28;20228;-58
2023/10/07 05:12:19;;;;;;;5.00;4.43;;;9.30;99.90;;;;;;5013064;28;20196;-58
2023/10/07 05:14:46;;;;;;;5.03;3.83;;;9.20;99.90;;;;;;5008087;28;20800;-58
2023/10/07 05:17:13;;;;;;;3.97;3.60;;;9.20;99.90;;;;;;5001953;28;20206;-58
2023/10/07 05:19:39;;;;;;;5.93;4.20;;;9.20;99.90;;;;;;5012053;28;20205;-58
2023/10/07 05:22:14;;;;;;;4.47;4.00;;;9.20;99.90;;;;;;4998294;28;20674;-58
2023/10/07 05:24:46;;;;;;;9.80;4.80;;;9.10;99.90;;;;;;5002966;28;20226;-58
2023/10/07 05:27:13;;;;;;;6.20;4.47;;;9.00;99.90;;;;;;5008572;28;20205;-57
2023/10/07 05:29:43;;;;;;;8.87;5.07;;;9.00;99.90;;;;;;5008950;28;20307;-58
2023/10/07 05:32:11;;;;;;;5.27;4.00;;;9.00;99.90;;;;;;5004987;28;20213;-58
2023/10/07 05:34:38;;;;;;;7.07;4.63;;;9.00;99.90;;;;;;5004056;28;20222;-60
2023/10/07 05:37:11;;;;;;;4.00;3.63;;;9.00;99.90;;;;;;5003204;28;20210;-58
2023/10/07 05:39:38;;;;;;;8.97;4.63;;;9.00;99.90;;;;;;5003105;28;20260;-58
2023/10/07 05:42:06;;;;;;;6.10;5.47;;;9.00;99.90;;;;;;5006746;28;20249;-57
2023/10/07 05:44:34;;;;;;;5.10;4.00;;;9.10;99.90;;;;;;5010060;28;20214;-57
2023/10/07 05:47:02;;;;;;;4.47;4.07;;;9.10;99.90;;;;;;5006776;28;20688;-58
2023/10/07 05:49:31;;;;;;;4.17;3.73;;;9.10;99.90;;;;;;5006893;28;20228;-60
2023/10/07 05:51:58;;;;;;;6.63;5.00;;;9.10;99.90;;;;;;5002769;28;20236;-58
2023/10/07 05:54:28;;;;;;;7.70;4.30;;;9.10;99.90;;;;;;5007009;28;20271;-58
2023/10/07 05:56:55;;;;;;;5.33;4.07;;;9.10;99.90;;;;;;5010295;28;20212;-58
2023/10/07 05:59:23;;;;;;;5.17;4.67;;;9.20;99.90;;;;;;5007830;28;20278;-58
2023/10/07 06:01:50;;;;;;;4.93;4.13;;;9.10;99.90;;;;;;5005978;28;20197;-57
2023/10/07 06:04:17;;;;;;;5.80;5.30;;;9.20;99.90;;;;;;5004576;28;20230;-58
2023/10/07 06:06:44;;;;;;;5.23;4.40;;;9.30;99.90;;;;;;5003219;28;20219;-58
2023/10/07 06:09:14;;;;;;;5.40;4.90;;;9.30;99.90;;;;;;5005049;28;20451;-57
2023/10/07 06:11:44;;;;;;;3.83;3.53;;;9.40;99.90;;;;;;5003626;28;20212;-61
2023/10/07 06:14:12;;;;;;;7.80;4.90;;;9.50;99.90;;;;;;5009676;28;20237;-61
2023/10/07 06:16:39;;;;;;;7.67;4.77;;;9.60;99.90;;;;;;5007904;28;20202;-62
2023/10/07 06:19:07;;;;;;;6.67;4.20;;;9.80;99.90;;;;;;5010529;28;20682;-61
2023/10/07 06:21:34;;;;;;;7.13;5.03;;;9.80;99.90;;;;;;5004468;28;20241;-62
2023/10/07 06:24:06;;;;;;;6.83;4.90;;;9.90;99.90;;;;;;5006892;28;20225;-62
2023/10/07 06:26:33;;;;;;;8.00;4.80;;;9.90;99.90;;;;;;5011529;28;20206;-63
2023/10/07 06:29:06;;;;;;;7.97;5.67;;;10.00;99.90;;;;;;5013368;28;20220;-64
2023/10/07 06:31:33;;;;;;;7.60;4.97;;;10.10;99.90;;;;;;5013761;28;20197;-64
2023/10/07 06:34:01;;;;;;;8.57;4.87;;;10.10;99.90;;;;;;5013041;28;20252;-63
2023/10/07 06:36:30;;;;;;;5.73;4.57;;;10.20;99.90;;;;;;5013707;28;20730;-62
2023/10/07 06:38:59;;;;;;;5.03;4.53;;;10.20;99.90;;;;;;5013729;28;20237;-62
2023/10/07 06:41:29;;;;;;;6.30;4.60;;;10.30;99.90;;;;;;5004148;28;20286;-64
2023/10/07 06:44:02;;;;;;;5.23;4.70;;;10.40;99.90;;;;;;5009883;28;20221;-64
2023/10/07 06:46:40;;;;;;;7.60;5.27;;;10.50;99.90;;;;;;5012787;28;20198;-65
2023/10/07 06:49:15;;;;;;;6.67;4.30;;;10.50;99.90;;;;;;5011942;28;20294;-65
2023/10/07 06:51:42;;;;;;;6.50;4.60;;;10.50;99.90;;;;;;5012415;28;20300;-66
2023/10/07 06:54:10;;;;;;;8.33;4.90;;;10.60;99.90;;;;;;5013507;28;20224;-67
2023/10/07 06:56:37;;;;;;;4.97;4.17;;;10.70;99.90;;;;;;4999804;28;20228;-65
2023/10/07 06:59:10;;;;;;;5.80;4.00;;;10.80;99.90;;;;;;5011435;28;20657;-68
2023/10/07 07:01:51;;;;;;;5.83;4.27;;;10.80;99.90;;;;;;5008972;28;20285;-65
2023/10/07 07:04:23;;;;;;;6.00;4.00;;;10.90;99.90;;;;;;5008529;28;20227;-69
2023/10/07 07:09:50;;;;;;;4.30;3.43;;;11.00;99.90;;;;;;4996661;28;20226;-67
2023/10/07 07:12:21;;;;;;;5.33;4.50;;;11.20;99.90;;;;;;5007581;28;20290;-67
2023/10/07 07:14:52;;;;;;;3.87;3.47;;;11.30;99.90;;;;;;5000868;28;20319;-68
2023/10/07 07:17:35;;;;;;;4.30;4.00;;;11.40;99.90;;;;;;5008921;28;20212;-67
2023/10/07 07:22:50;;;;;;;12.47;8.10;;;11.60;99.90;;;;;;4996766;28;20273;-68
2023/10/07 07:25:22;;;;;;;6.03;5.33;;;11.70;99.90;;;;;;5008483;28;20222;-67
2023/10/07 07:27:50;;;;;;;5.07;3.73;;;11.90;99.90;;;;;;5006155;28;20287;-66
2023/10/07 07:30:29;;;;;;;6.97;4.63;;;12.10;99.90;;;;;;5005895;28;20231;-68
2023/10/07 07:32:59;;;;;;;6.20;5.63;;;12.10;99.90;;;;;;5008758;28;20203;-64
2023/10/07 07:35:43;;;;;;;4.57;4.07;;;12.20;99.90;;;;;;5008525;28;20219;-65
2023/10/07 07:38:30;;;;;;;5.97;3.87;;;12.30;99.90;;;;;;5008221;28;20289;-66
2023/10/07 07:41:06;;;;;;;4.60;3.27;;;12.40;99.90;;;;;;5004794;28;20274;-59
2023/10/07 07:43:33;;;;;;;5.80;4.10;;;12.50;99.90;;;;;;5001086;28;20287;-59
2023/10/07 07:46:26;;;;;;;5.23;4.73;;;12.70;99.90;;;;;;5001509;28;20213;-59
2023/10/07 07:48:55;;;;;;;7.77;4.00;;;12.80;99.90;;;;;;5007869;28;20233;-61
2023/10/07 07:51:24;;;;;;;8.27;4.13;;;13.00;99.90;;;;;;5004942;28;20202;-58
2023/10/07 07:53:52;;;;;;;10.17;4.63;;;13.00;99.90;;;;;;5005700;28;20716;-57
2023/10/07 07:56:22;;;;;;;8.37;4.57;;;13.10;99.90;;;;;;5007033;28;20341;-58
2023/10/07 07:58:52;;;;;;;4.83;4.00;;;13.20;99.90;;;;;;4996874;28;20207;-59
2023/10/07 08:01:22;;;;;;;9.43;5.20;;;13.30;99.90;;;;;;5004036;28;20652;-59
2023/10/07 08:03:49;;;;;;;6.37;3.30;;;13.60;99.90;;;;;;5008590;28;20223;-59
2023/10/07 08:06:21;;;;;;;6.87;4.33;;;13.70;99.90;;;;;;5010524;28;20264;-59
2023/10/07 08:08:53;;;;;;;5.53;3.67;;;13.80;99.90;;;;;;5007886;28;20306;-59
2023/10/07 08:11:20;;;;;;;6.47;4.13;;;13.80;99.90;;;;;;5003191;28;20202;-58
2023/10/07 08:13:48;;;;;;;6.43;4.40;;;13.80;99.90;;;;;;5004874;28;20231;-59
2023/10/07 08:16:18;;;;;;;6.30;4.67;;;13.90;99.90;;;;;;5003725;28;20267;-59
2023/10/07 08:18:46;;;;;;;5.03;4.53;;;13.90;99.90;;;;;;5003852;28;20246;-59
2023/10/07 08:21:17;;;;;;;5.47;4.73;;;13.90;99.90;;;;;;5006026;28;20203;-59
2023/10/07 08:23:47;;;;;;;4.40;4.00;;;13.90;99.90;;;;;;5008715;28;20219;-59
2023/10/07 08:26:20;;;;;;;4.43;3.93;;;14.10;99.90;;;;;;5008028;28;20195;-58
2023/10/07 08:28:59;;;;;;;4.83;4.33;;;14.30;99.90;;;;;;5011867;28;20218;-59
2023/10/07 08:31:37;;;;;;;5.43;4.50;;;14.30;99.90;;;;;;5011397;28;20198;-59
2023/10/07 08:34:09;;;;;;;4.47;3.80;;;14.40;99.90;;;;;;5009294;28;20284;-58
2023/10/07 08:36:37;;;;;;;5.23;4.17;;;14.50;99.90;;;;;;5008932;28;20203;-58
2023/10/07 08:39:08;;;;;;;4.53;3.90;;;14.60;99.90;;;;;;5011740;28;20202;-62
2023/10/07 08:41:37;;;;;;;4.83;3.90;;;15.00;99.90;;;;;;5005379;28;20203;-58
2023/10/07 08:44:13;;;;;;;4.20;3.40;;;15.80;99.90;;;;;;5002373;28;20227;-59
2023/10/07 08:46:40;;;;;;;4.07;3.67;;;16.90;99.90;;;;;;5010062;28;20199;-59
2023/10/07 08:49:13;;;;;;;7.13;4.50;;;18.20;99.90;;;;;;5009668;28;20703;-59
2023/10/07 08:51:43;;;;;;;5.63;4.47;;;19.30;99.90;;;;;;5009523;28;20195;-59
2023/10/07 08:54:17;;;;;;;7.90;3.93;;;20.30;99.90;;;;;;5004251;28;20706;-60
2023/10/07 08:56:54;;;;;;;4.70;3.83;;;20.90;99.90;;;;;;5009864;28;20261;-60
2023/10/07 08:59:22;;;;;;;6.27;3.70;;;21.50;99.90;;;;;;5005042;28;20286;-59
2023/10/07 09:01:57;;;;;;;5.77;4.17;;;21.90;99.90;;;;;;5008653;28;20203;-59
2023/10/07 09:04:25;;;;;;;5.13;4.43;;;22.00;99.90;;;;;;5010070;28;20225;-60
2023/10/07 09:06:52;;;;;;;7.33;3.97;;;22.80;99.90;;;;;;5010870;28;20223;-59
2023/10/07 09:09:38;;;;;;;5.63;5.20;;;23.20;99.90;;;;;;5006322;28;20691;-59
2023/10/07 09:12:14;;;;;;;8.53;7.37;;;23.10;99.90;;;;;;5008153;28;20646;-59
2023/10/07 09:14:52;;;;;;;9.40;8.50;;;22.60;99.90;;;;;;5009059;28;20285;-59
2023/10/07 09:17:21;;;;;;;9.00;8.20;;;22.60;99.90;;;;;;5010508;28;20199;-60
2023/10/07 09:19:48;;;;;;;9.13;8.37;;;22.10;99.90;;;;;;5010450;28;20282;-59
2023/10/07 09:22:21;;;;;;;12.63;10.73;;;22.20;99.90;;;;;;5005444;28;20207;-61
2023/10/07 09:24:50;;;;;;;9.37;8.47;;;21.90;99.90;;;;;;5040686;22;20299;-56
2023/10/07 09:27:36;;;;;;;9.80;8.93;;;22.40;99.90;;;;;;5046360;28;20198;-56
2023/10/07 09:30:34;;;;;;;12.27;10.87;;;23.10;99.90;;;;;;5058154;28;20209;-56
2023/10/07 09:32:55;;;;;;;10.20;9.17;;;22.60;99.90;;;;;;5056953;28;20680;-58
2023/10/07 09:35:22;;;;;;;9.30;8.30;;;22.90;99.90;;;;;;5055651;28;20565;-59
2023/10/07 09:37:53;;;;;;;13.60;10.07;;;23.10;99.90;;;;;;5058122;28;20199;-56
2023/10/07 09:41:07;;;;;;;10.93;9.83;;;23.00;99.90;;;;;;5054456;28;20199;-56
2023/10/07 09:43:25;;;;;;;11.13;10.03;;;22.80;99.90;;;;;;5036297;28;20289;-58
2023/10/07 09:45:53;;;;;;;11.47;9.40;;;22.40;99.90;;;;;;5043853;28;20217;-59
2023/10/07 09:48:23;;;;;;;11.27;10.13;;;22.60;99.90;;;;;;5037956;28;20201;-58
2023/10/07 09:50:55;;;;;;;12.70;11.50;;;22.80;99.90;;;;;;5031798;28;20241;-59
2023/10/07 09:53:36;;;;;;;11.30;10.23;;;22.50;99.90;;;;;;5036222;28;20208;-56
2023/10/07 09:56:21;;;;;;;12.97;11.67;;;23.10;99.90;;;;;;5047980;28;20223;-56
2023/10/07 09:59:13;;;;;;;10.80;9.90;;;23.30;99.90;;;;;;5047661;28;20597;-59
2023/10/07 10:01:54;;;;;;;10.40;9.50;;;23.60;99.90;;;;;;5042604;28;20288;-59
2023/10/07 10:04:46;;;;;;;11.37;10.23;;;23.80;99.90;;;;;;5046675;28;20221;-59
2023/10/07 10:07:39;;;;;;;9.63;8.67;;;24.30;99.90;;;;;;5036036;28;20219;-59
2023/10/07 10:10:08;;;;;;;11.53;10.30;;;24.10;99.90;;;;;;5043139;28;20305;-59
2023/10/07 10:21:14;;;;;;;9.23;8.43;;;24.30;99.90;;;;;;5037932;28;20247;-59
2023/10/07 10:23:44;;;;;;;9.27;8.47;;;24.30;99.90;;;;;;5050061;28;20206;-59
2023/10/07 10:26:20;;;;;;;12.23;9.97;;;24.60;99.90;;;;;;5045108;28;20234;-59
2023/10/07 10:28:59;;;;;;;11.33;10.27;;;24.30;99.90;;;;;;5053516;28;20201;-56
2023/10/07 10:31:32;;;;;;;9.07;8.20;;;23.60;99.90;;;;;;5042808;28;20229;-59
2023/10/07 10:34:04;;;;;;;9.00;8.20;;;23.20;99.90;;;;;;5039871;28;20213;-56
2023/10/07 10:36:35;;;;;;;10.00;8.43;;;23.00;99.90;;;;;;5042836;28;20299;-56
2023/10/07 10:39:05;;;;;;;7.67;6.97;;;22.40;99.90;;;;;;5044330;28;20297;-56
2023/10/07 10:41:33;;;;;;;8.60;7.43;;;22.10;99.90;;;;;;5040741;28;21089;-56
2023/10/07 10:44:07;;;;;;;8.60;7.80;;;22.00;99.90;;;;;;5041607;28;20202;-56
2023/10/07 10:46:45;;;;;;;6.63;6.10;;;22.10;99.90;;;;;;5050951;28;20599;-56
2023/10/07 10:49:15;;;;;;;8.83;7.93;;;22.00;99.90;;;;;;5035695;28;20206;-57
2023/10/07 10:51:48;;;;;;;8.43;7.33;;;21.90;99.90;;;;;;5043049;28;20197;-56
2023/10/07 10:54:17;;;;;;;9.23;8.20;;;21.90;99.90;;;;;;5034957;28;20301;-56
2023/10/07 10:56:55;;;;;;;6.80;6.20;;;21.80;99.90;;;;;;5039453;28;20642;-56
2023/10/07 10:59:35;;;;;;;9.90;5.97;;;21.70;99.90;;;;;;5039482;28;20264;-56
2023/10/07 11:02:05;;;;;;;6.43;5.87;;;21.60;99.90;;;;;;5031951;28;20373;-58
2023/10/07 11:04:33;;;;;;;6.60;5.13;;;21.60;99.90;;;;;;5038277;28;20224;-58
2023/10/07 11:07:00;;;;;;;5.73;5.00;;;21.50;99.90;;;;;;5031030;28;20684;-59
2023/10/07 11:09:35;;;;;;;6.10;5.53;;;21.30;99.90;;;;;;5032443;28;20245;-59
2023/10/07 11:12:09;;;;;;;6.03;5.07;;;21.50;99.90;;;;;;5034391;28;20202;-59
2023/10/07 11:14:40;;;;;;;5.17;4.67;;;21.40;99.90;;;;;;5040881;28;20716;-56
2023/10/07 11:17:09;;;;;;;6.97;6.27;;;21.40;99.90;;;;;;5035537;28;20314;-56
2023/10/07 11:19:41;;;;;;;7.00;5.47;;;21.50;99.90;;;;;;5037538;28;20209;-56
2023/10/07 11:22:09;;;;;;;6.63;6.03;;;21.60;99.90;;;;;;5035133;28;20286;-56
2023/10/07 11:24:37;;;;;;;7.47;6.80;;;21.30;99.90;;;;;;5039081;28;20364;-56
2023/10/07 11:27:08;;;;;;;6.43;5.83;;;20.90;99.90;;;;;;5033077;28;20212;-56
2023/10/07 11:29:38;;;;;;;11.67;7.23;;;20.80;99.90;;;;;;5039007;28;20208;-57
2023/10/07 11:32:07;;;;;;;8.13;6.83;;;20.80;99.90;;;;;;5043403;28;20260;-56
2023/10/07 11:34:37;;;;;;;6.33;5.73;;;20.80;99.90;;;;;;5034790;28;20690;-56
2023/10/07 11:37:09;;;;;;;8.07;6.73;;;20.90;99.90;;;;;;5040981;28;20229;-56
2023/10/07 11:39:43;;;;;;;6.07;5.47;;;21.00;99.90;;;;;;5040706;28;20687;-59
2023/10/07 11:42:12;;;;;;;6.17;5.60;;;21.20;99.90;;;;;;5031889;28;20226;-56
2023/10/07 11:44:41;;;;;;;6.40;4.70;;;21.40;99.90;;;;;;5033959;28;20252;-56
2023/10/07 11:47:09;;;;;;;8.70;5.70;;;21.30;99.90;;;;;;5032270;28;20305;-56
2023/10/07 11:49:36;;;;;;;8.23;7.43;;;21.30;99.90;;;;;;5031914;28;20256;-56
2023/10/07 11:52:05;;;;;;;7.87;7.00;;;21.00;99.90;;;;;;5036827;28;20673;-56
2023/10/07 11:54:34;;;;;;;7.57;6.23;;;20.70;99.90;;;;;;5032239;28;20222;-56
2023/10/07 11:57:02;;;;;;;5.57;5.07;;;20.80;99.90;;;;;;5039368;28;20202;-56
2023/10/07 11:59:30;;;;;;;6.10;5.60;;;20.80;99.90;;;;;;5031233;28;20290;-56
2023/10/07 12:02:00;;;;;;;9.63;8.67;;;20.90;99.90;;;;;;5035785;28;20317;-56
2023/10/07 12:04:27;;;;;;;10.30;9.40;;;20.80;99.90;;;;;;5032200;28;20506;-58
2023/10/07 12:06:55;;;;;;;13.00;11.77;;;20.40;99.90;;;;;;5032153;28;20202;-58
2023/10/07 12:09:23;;;;;;;12.37;11.00;;;20.30;99.90;;;;;;5032913;28;20214;-57
2023/10/07 12:11:53;;;;;;;12.87;11.47;;;20.20;99.90;;;;;;5031484;28;20257;-57
2023/10/07 12:14:22;;;;;;;15.03;11.23;;;20.20;99.90;;;;;;5032635;28;20214;-57
2023/10/07 12:16:49;;;;;;;10.30;9.30;;;20.20;99.90;;;;;;5035568;28;20205;-58
2023/10/07 12:19:18;;;;;;;8.50;7.67;;;20.10;99.90;;;;;;5032280;28;20574;-58
2023/10/07 12:21:48;;;;;;;6.63;5.67;;;20.00;99.90;;;;;;5033389;28;20198;-56
2023/10/07 12:24:16;;;;;;;6.70;6.00;;;20.10;99.90;;;;;;5043371;28;20218;-57
2023/10/07 12:26:45;;;;;;;5.37;4.87;;;20.00;99.90;;;;;;5042858;28;20194;-57
2023/10/07 12:29:13;;;;;;;4.80;4.40;;;20.10;99.90;;;;;;5044494;28;20255;-58
2023/10/07 12:31:42;;;;;;;6.37;5.50;;;20.20;99.90;;;;;;5040091;28;20225;-58
2023/10/07 12:34:10;;;;;;;5.10;4.63;;;20.20;99.90;;;;;;5047215;28;20194;-58
2023/10/07 12:36:39;;;;;;;7.70;5.23;;;20.20;99.90;;;;;;5041629;28;20202;-58
2023/10/07 12:39:10;;;;;;;5.80;5.27;;;20.20;99.90;;;;;;5042538;28;20268;-58
2023/10/07 12:41:40;;;;;;;9.07;5.30;;;20.30;99.90;;;;;;5041085;28;20257;-58
2023/10/07 12:44:09;;;;;;;32.07;7.63;;;20.20;99.90;;;;;;5036649;28;20198;-59
2023/10/07 12:46:38;;;;;;;8.30;5.43;;;20.20;99.90;;;;;;5036087;28;20198;-58
2023/10/07 12:49:09;;;;;;;7.13;6.37;;;20.20;99.90;;;;;;5039729;28;20733;-58
2023/10/07 12:51:38;;;;;;;9.83;7.70;;;20.10;99.90;;;;;;5044273;28;20230;-57
2023/10/07 12:54:08;;;;;;;8.03;7.33;;;20.00;99.90;;;;;;5045945;28;20209;-57
2023/10/07 12:56:37;;;;;;;7.60;6.83;;;19.90;99.90;;;;;;5042007;28;20236;-55
2023/10/07 12:59:07;;;;;;;7.33;6.67;;;19.90;99.90;;;;;;5048037;28;20320;-55
2023/10/07 13:01:35;;;;;;;11.93;8.50;;;19.90;99.90;;;;;;5053902;28;20215;-55
2023/10/07 13:04:02;;;;;;;9.00;8.10;;;19.90;99.90;;;;;;5050258;28;20207;-55
2023/10/07 13:06:30;;;;;;;9.50;8.07;;;20.00;99.90;;;;;;5037119;28;20198;-55
2023/10/07 13:09:03;;;;;;;8.93;6.77;;;20.00;99.90;;;;;;5033407;28;20610;-55
2023/10/07 13:11:30;;;;;;;7.83;7.03;;;19.80;99.90;;;;;;5043356;28;20337;-55
2023/10/07 13:13:58;;;;;;;9.67;6.90;;;19.80;99.90;;;;;;5041441;28;20657;-55
2023/10/07 13:16:25;;;;;;;7.43;6.27;;;19.80;99.90;;;;;;5040158;28;20210;-55
2023/10/07 13:18:52;;;;;;;10.13;7.20;;;19.80;99.90;;;;;;5046373;28;20220;-55
2023/10/07 13:21:24;;;;;;;7.80;7.03;;;19.70;99.90;;;;;;5046252;28;20232;-55
2023/10/07 13:23:51;;;;;;;11.03;9.47;;;19.80;99.90;;;;;;5048979;28;20198;-55
2023/10/07 13:26:21;;;;;;;10.20;9.33;;;19.80;99.90;;;;;;5039976;28;20230;-58
2023/10/07 13:28:48;;;;;;;10.13;9.07;;;19.80;99.90;;;;;;5048933;28;20197;-55